createdAt,value
2022-09-13T00:00:40.217Z,35.5
2022-09-13T00:06:17.809Z,35.5
2022-09-13T00:11:56.103Z,35.4
2022-09-13T00:17:18.191Z,35.4
2022-09-13T00:22:55.431Z,35.4
2022-09-13T00:28:33.321Z,35.4
2022-09-13T00:39:31.974Z,35.3
2022-09-13T00:45:10.673Z,35.3
2022-09-13T00:50:47.799Z,35.3
2022-09-13T00:56:26.536Z,35.3
2022-09-13T01:02:04.514Z,35.3
2022-09-13T01:07:41.834Z,35.3
2022-09-13T01:13:18.046Z,35.3
2022-09-13T01:18:59.716Z,35.2
2022-09-13T01:24:37.176Z,35.2
2022-09-13T01:35:37.122Z,35.1
2022-09-13T01:41:13.816Z,35.1
2022-09-13T01:46:35.234Z,35.1
2022-09-13T01:52:15.978Z,35.1
2022-09-13T01:57:52.446Z,35
2022-09-13T02:03:14.299Z,34.9
2022-09-13T02:08:52.878Z,34.9
2022-09-13T02:14:30.135Z,34.9
2022-09-13T02:20:07.726Z,34.9
2022-09-13T02:25:46.330Z,34.8
2022-09-13T02:31:23.920Z,34.9
2022-09-13T02:42:27.021Z,34.9
2022-09-13T02:48:03.760Z,35
2022-09-13T02:53:40.590Z,34.9
2022-09-13T02:59:19.465Z,34.8
2022-09-13T03:04:56.893Z,34.7
2022-09-13T03:10:33.587Z,34.6
2022-09-13T03:16:11.855Z,34.5
2022-09-13T03:21:33.272Z,34.4
2022-09-13T03:27:08.670Z,34.4
2022-09-13T03:32:47.037Z,34.4
2022-09-13T03:38:24.419Z,34.4
2022-09-13T03:48:54.066Z,34.3
2022-09-13T03:54:31.910Z,34.3
2022-09-13T04:00:08.432Z,34.3
2022-09-13T04:05:51.434Z,34.2
2022-09-13T04:11:16.425Z,34.2
2022-09-13T04:16:52.426Z,34.2
2022-09-13T04:22:31.141Z,34.1
2022-09-13T04:28:08.738Z,34.1
2022-09-13T04:33:45.738Z,34.1
2022-09-13T04:39:24.513Z,34
2022-09-13T04:45:01.988Z,34
2022-09-13T04:50:39.126Z,33.9
2022-09-13T04:56:17.082Z,33.9
2022-09-13T05:01:58.145Z,33.9
2022-09-13T05:07:34.848Z,33.9
2022-09-13T05:13:12.540Z,33.8
2022-09-13T05:18:50.883Z,33.8
2022-09-13T05:24:28.250Z,33.7
2022-09-13T05:30:10.033Z,33.7
2022-09-13T05:35:47.612Z,33.7
2022-09-13T05:42:22.602Z,33.6
2022-09-13T05:48:09.781Z,33.5
2022-09-13T05:59:59.279Z,33.4
2022-09-13T06:05:37.937Z,31.8
2022-09-13T06:11:16.032Z,35.4
2022-09-13T06:16:53.919Z,34.6
2022-09-13T06:22:35.524Z,34.5
2022-09-13T06:28:13.327Z,34.4
2022-09-13T06:33:38.969Z,40.3
2022-09-13T06:39:19.533Z,43.3
2022-09-13T06:44:57.291Z,44.3
2022-09-13T06:50:39.039Z,45.3
2022-09-13T06:56:02.439Z,46.3
2022-09-13T07:01:45.946Z,46.8
2022-09-13T07:07:28.161Z,47.5
2022-09-13T07:12:37.292Z,48.2
2022-09-13T07:18:19.096Z,48.6
2022-09-13T07:23:45.232Z,49.3
2022-09-13T07:29:25.695Z,49.6
2022-09-13T07:35:04.369Z,50.4
2022-09-13T07:40:29.973Z,51
2022-09-13T07:46:08.627Z,51.8
2022-09-13T07:51:47.042Z,52.6
2022-09-13T07:57:24.301Z,53
2022-09-13T08:03:07.710Z,53.8
2022-09-13T08:08:34.266Z,54.6
2022-09-13T08:13:57.699Z,50.6
2022-09-13T08:19:36.341Z,51.3
2022-09-13T08:25:14.301Z,51.3
2022-09-13T08:30:24.585Z,55.6
2022-09-13T08:35:48.075Z,56.6
2022-09-13T08:41:10.830Z,57.1
2022-09-13T08:46:48.790Z,57.9
2022-09-13T08:52:27.287Z,55.3
2022-09-13T08:58:05.107Z,52.3
2022-09-13T09:03:29.850Z,53.8
2022-09-13T09:14:17.766Z,50.8
2022-09-13T09:19:56.145Z,52.6
2022-09-13T09:25:18.815Z,53
2022-09-13T09:31:02.054Z,51.2
2022-09-13T09:36:39.984Z,50.6
2022-09-13T09:42:18.750Z,52.2
2022-09-13T09:48:02.243Z,57.1
2022-09-13T09:53:39.719Z,59.1
2022-09-13T09:59:18.568Z,59.4
2022-09-13T10:04:57.132Z,60
2022-09-13T10:10:39.310Z,60.4
2022-09-13T10:16:18.796Z,60.9
2022-09-13T10:22:20.675Z,61.4
2022-09-13T10:33:28.576Z,62
2022-09-13T10:39:27.305Z,62.1
2022-09-13T10:45:04.082Z,62.7
2022-09-13T10:50:42.619Z,58.8
2022-09-13T10:56:23.733Z,61.6
2022-09-13T11:02:01.825Z,62.9
2022-09-13T11:07:40.315Z,58
2022-09-13T11:13:18.140Z,56
2022-09-13T11:18:55.683Z,57.6
2022-09-13T11:24:34.542Z,57
2022-09-13T11:30:15.292Z,55.3
2022-09-13T11:35:52.828Z,59.6
2022-09-13T11:41:16.171Z,61.4
2022-09-13T11:47:00.540Z,60.4
2022-09-13T11:52:37.569Z,56.8
2022-09-13T12:03:46.635Z,57.5
2022-09-13T12:09:48.094Z,57.9
2022-09-13T12:20:35.944Z,59.1
2022-09-13T12:26:13.880Z,59.6
2022-09-13T12:31:54.272Z,56.2
2022-09-13T12:37:32.374Z,58.1
2022-09-13T12:43:09.564Z,57.9
2022-09-13T12:48:48.196Z,59.1
2022-09-13T12:55:01.957Z,56.6
2022-09-13T13:00:54.286Z,56.3
2022-09-13T13:06:35.431Z,57.4
2022-09-13T13:12:15.199Z,56.8
2022-09-13T13:17:52.717Z,56.7
2022-09-13T13:23:33.983Z,54.1
2022-09-13T13:29:11.972Z,54.5
2022-09-13T13:34:50.079Z,55.2
2022-09-13T13:40:28.764Z,53.8
2022-09-13T13:46:07.214Z,54.6
2022-09-13T13:51:45.371Z,54.4
2022-09-13T13:57:26.215Z,53.9
2022-09-13T14:03:04.711Z,53.4
2022-09-13T14:25:08.348Z,51.4
2022-09-13T14:30:19.361Z,50.8
2022-09-13T14:35:49.671Z,50.3
2022-09-13T14:41:27.993Z,49.7
2022-09-13T14:46:57.235Z,49
2022-09-13T14:52:35.376Z,48.5
2022-09-13T14:58:13.099Z,46.5
2022-09-13T15:03:57.886Z,44.5
2022-09-13T15:09:36.591Z,43.4
2022-09-13T15:15:15.475Z,42.5
2022-09-13T15:20:53.898Z,41.9
2022-09-13T15:26:32.544Z,41.4
2022-09-13T15:32:09.402Z,41
2022-09-13T15:37:47.983Z,40.8
2022-09-13T15:43:25.952Z,40.6
2022-09-13T15:49:03.757Z,40.3
2022-09-13T15:54:26.977Z,40.2
2022-09-13T15:59:49.569Z,40
2022-09-13T16:05:12.717Z,39.9
2022-09-13T16:10:54.981Z,39.8
2022-09-13T16:16:33.591Z,39.8
2022-09-13T16:22:12.848Z,39.6
2022-09-13T16:27:50.906Z,39.4
2022-09-13T16:33:29.231Z,39.3
2022-09-13T16:39:07.494Z,39.2
2022-09-13T16:44:45.874Z,39
2022-09-13T16:50:24.331Z,38.9
2022-09-13T16:55:45.779Z,38.9
2022-09-13T17:00:56.233Z,38.8
2022-09-13T17:06:23.327Z,38.7
2022-09-13T17:11:45.520Z,38.6
2022-09-13T17:17:23.842Z,38.5
2022-09-13T17:23:01.889Z,38.4
2022-09-13T17:28:42.678Z,38.4
2022-09-13T17:34:26.276Z,38.3
2022-09-13T17:40:04.183Z,38.2
2022-09-13T17:45:47.191Z,38.1
2022-09-13T17:51:25.821Z,38.1
2022-09-13T17:57:05.170Z,38
2022-09-13T18:02:31.963Z,37.9
2022-09-13T18:08:15.416Z,37.9
2022-09-13T18:14:36.524Z,37.8
2022-09-13T18:20:39.937Z,37.8
2022-09-13T18:26:21.975Z,37.7
2022-09-13T18:32:00.240Z,37.6
2022-09-13T18:37:26.197Z,37.6
2022-09-13T18:43:06.481Z,37.6
2022-09-13T18:48:29.673Z,37.5
2022-09-13T18:54:09.412Z,37.4
2022-09-13T18:59:38.158Z,37.4
2022-09-13T19:05:24.388Z,37.3
2022-09-13T19:10:49.384Z,37.3
2022-09-13T19:16:54.025Z,37.3
2022-09-13T19:22:32.884Z,37.2
2022-09-13T19:28:32.954Z,37.1
2022-09-13T19:34:12.160Z,37.1
2022-09-13T19:40:02.330Z,37.1
2022-09-13T19:45:24.405Z,37
2022-09-13T19:52:25.287Z,36.9
2022-09-13T19:57:58.359Z,36.8
2022-09-13T20:03:20.588Z,36.8
2022-09-13T20:14:26.454Z,36.8
2022-09-13T20:20:29.077Z,36.7
2022-09-13T20:25:51.804Z,36.6
2022-09-13T20:31:16.410Z,36.6
2022-09-13T20:36:55.112Z,36.6
2022-09-13T20:42:36.300Z,36.5
2022-09-13T20:53:36.620Z,36.5
2022-09-13T20:59:00.270Z,36.5
2022-09-13T21:04:39.395Z,36.5
2022-09-13T21:15:40.693Z,36.4
2022-09-13T21:21:18.693Z,36.4
2022-09-13T21:32:24.153Z,36.3
2022-09-13T21:38:02.220Z,36.3
2022-09-13T21:49:03.493Z,36.2
2022-09-13T21:59:55.141Z,36.1
2022-09-13T22:05:38.818Z,36.1
2022-09-13T22:11:11.146Z,36.1
2022-09-13T22:16:36.788Z,35.9
2022-09-13T22:22:21.921Z,35.9
2022-09-13T22:28:05.392Z,35.9
2022-09-13T22:39:15.981Z,35.8
2022-09-13T22:44:53.191Z,35.8
2022-09-13T22:50:30.007Z,35.8
2022-09-13T22:56:08.429Z,35.8
2022-09-13T23:01:46.107Z,35.7
2022-09-13T23:07:24.404Z,35.6
2022-09-13T23:13:02.318Z,35.6
2022-09-13T23:18:41.022Z,35.6
2022-09-13T23:24:17.954Z,35.6
2022-09-13T23:29:39.826Z,35.6
2022-09-13T23:35:17.825Z,35.5
2022-09-13T23:40:40.049Z,35.5
2022-09-13T23:46:02.028Z,35.5
2022-09-13T23:51:39.550Z,35.5
2022-09-13T23:57:02.154Z,35.4
